This is the latest recevied weather packets stored in our database for station/object KB1YTR-1. If no packets are shown the sender has not sent any weather packets the latest 10 day(s).
| Time | Temp. | Humidity | Pressure | Rain* | Wind** | Luminosity | Snow |
|---|---|---|---|---|---|---|---|
| 1777541735 | 0° C | 87% | 1017 hPa | 0 mm | - | - | - |
| 1777540967 | 0° C | 86% | 1017 hPa | 0 mm | - | - | - |
| 1777540127 | 0° C | 86% | 1016.8 hPa | 0 mm | - | - | - |
| 1777539232 | 0° C | 85% | 1016.8 hPa | 0 mm | - | - | - |
| 1777538345 | 0° C | 86% | 1016.8 hPa | 0 mm | - | - | - |
| 1777537448 | 0° C | 86% | 1016.8 hPa | 0 mm | - | - | - |
| 1777536642 | 0° C | 87% | 1017 hPa | 0 mm | - | - | - |
| 1777535797 | 0° C | 86% | 1016.8 hPa | 0 mm | - | - | - |
| 1777534186 | -0.56° C | 88% | 1016.8 hPa | 0 mm | - | - | - |
| 1777533352 | -0.56° C | 88% | 1017 hPa | 0 mm | - | - | - |
| 1777532463 | -1.11° C | 89% | 1017.1 hPa | 0 mm | - | - | - |
| 1777531652 | -1.11° C | 90% | 1017 hPa | 0 mm | - | - | - |
| 1777530884 | -1.11° C | 90% | 1017 hPa | 0 mm | - | - | - |
| 1777530119 | -1.11° C | 91% | 1017.1 hPa | 0 mm | - | - | - |
| 1777529282 | -1.11° C | 91% | 1017.3 hPa | 0 mm | - | - | - |
| 1777528526 | -1.11° C | 90% | 1017.4 hPa | 0 mm | - | - | - |
| 1777527792 | -1.11° C | 90% | 1017.2 hPa | 0 mm | - | - | - |
| 1777526902 | -1.67° C | 91% | 1017.3 hPa | 0 mm | - | - | - |
| 1777526057 | -1.11° C | 90% | 1017.3 hPa | 0 mm | - | - | - |
| 1777525217 | -1.67° C | 91% | 1017.2 hPa | 0 mm | - | - | - |
| 1777524374 | -1.11° C | 88% | 1017.3 hPa | 0 mm | - | - | - |
| 1777523557 | -1.11° C | 87% | 1017.3 hPa | 0 mm | - | - | - |
| 1777522752 | -0.56° C | 85% | 1017.5 hPa | 0 mm | - | - | - |
| 1777521892 | 0° C | 83% | 1017.3 hPa | 0 mm | - | - | - |
| 1777521097 | 0.56° C | 82% | 1017.3 hPa | 0 mm | - | - | - |
* Rain latest hour (hover to see other rain measurements)
** Current wind speed in m/s (hover to see current wind gust speed)